sensor_id;sensor_type;location;lat;lon;timestamp;pressure;altitude;pressure_sealevel;temperature;humidity
51299;BME280;37382;45.192;9.790;2023-05-12T04:16:27;100786.78;;;14.23;100.00
51299;BME280;37382;45.192;9.790;2023-05-12T04:18:57;100790.09;;;14.32;100.00
51299;BME280;37382;45.192;9.790;2023-05-12T04:21:25;100792.03;;;14.25;100.00
51299;BME280;37382;45.192;9.790;2023-05-12T04:23:53;100793.69;;;14.33;100.00
51299;BME280;37382;45.192;9.790;2023-05-12T04:26:23;100792.13;;;14.44;100.00
51299;BME280;37382;45.192;9.790;2023-05-12T04:28:53;100795.13;;;14.35;100.00
51299;BME280;37382;45.192;9.790;2023-05-12T04:31:20;100797.72;;;14.23;100.00
51299;BME280;37382;45.192;9.790;2023-05-12T04:33:48;100804.50;;;14.14;100.00
51299;BME280;37382;45.192;9.790;2023-05-12T04:36:16;100804.94;;;14.50;100.00
51299;BME280;37382;45.192;9.790;2023-05-12T04:38:44;100800.56;;;14.42;100.00
51299;BME280;37382;45.192;9.790;2023-05-12T04:41:12;100807.16;;;14.59;100.00
51299;BME280;37382;45.192;9.790;2023-05-12T04:43:39;100802.31;;;14.62;100.00
51299;BME280;37382;45.192;9.790;2023-05-12T04:46:10;100810.09;;;14.65;100.00
51299;BME280;37382;45.192;9.790;2023-05-12T04:48:38;100802.91;;;14.89;100.00
51299;BME280;37382;45.192;9.790;2023-05-12T04:51:08;100806.53;;;14.89;100.00
51299;BME280;37382;45.192;9.790;2023-05-12T04:53:36;100806.38;;;15.03;100.00
51299;BME280;37382;45.192;9.790;2023-05-12T04:56:03;100808.81;;;14.92;100.00
51299;BME280;37382;45.192;9.790;2023-05-12T04:58:37;100814.06;;;14.69;100.00
51299;BME280;37382;45.192;9.790;2023-05-12T05:01:06;100813.94;;;14.82;100.00
51299;BME280;37382;45.192;9.790;2023-05-12T05:03:34;100821.28;;;14.88;100.00
51299;BME280;37382;45.192;9.790;2023-05-12T05:06:02;100816.09;;;14.80;100.00
51299;BME280;37382;45.192;9.790;2023-05-12T05:08:30;100816.94;;;14.99;100.00
51299;BME280;37382;45.192;9.790;2023-05-12T05:10:57;100825.31;;;15.04;100.00
51299;BME280;37382;45.192;9.790;2023-05-12T05:13:27;100824.72;;;15.02;100.00
51299;BME280;37382;45.192;9.790;2023-05-12T05:15:54;100828.50;;;15.01;100.00
51299;BME280;37382;45.192;9.790;2023-05-12T05:18:24;100830.44;;;14.75;100.00
51299;BME280;37382;45.192;9.790;2023-05-12T05:20:53;100835.94;;;14.75;100.00
51299;BME280;37382;45.192;9.790;2023-05-12T05:23:25;100828.09;;;14.79;100.00
51299;BME280;37382;45.192;9.790;2023-05-12T05:25:53;100823.66;;;14.78;100.00
51299;BME280;37382;45.192;9.790;2023-05-12T05:28:23;100821.81;;;14.72;100.00
51299;BME280;37382;45.192;9.790;2023-05-12T05:30:52;100824.84;;;14.89;100.00
51299;BME280;37382;45.192;9.790;2023-05-12T05:33:20;100827.34;;;14.90;100.00
51299;BME280;37382;45.192;9.790;2023-05-12T05:35:47;100828.97;;;14.98;100.00
51299;BME280;37382;45.192;9.790;2023-05-12T05:38:15;100825.94;;;15.06;100.00
51299;BME280;37382;45.192;9.790;2023-05-12T05:40:43;100831.69;;;15.23;100.00
51299;BME280;37382;45.192;9.790;2023-05-12T05:43:21;100834.72;;;15.15;100.00
51299;BME280;37382;45.192;9.790;2023-05-12T05:45:49;100826.53;;;15.34;100.00
51299;BME280;37382;45.192;9.790;2023-05-12T05:48:19;100833.88;;;15.33;100.00
51299;BME280;37382;45.192;9.790;2023-05-12T05:50:50;100837.50;;;15.34;100.00
51299;BME280;37382;45.192;9.790;2023-05-12T05:53:18;100843.88;;;15.46;100.00
51299;BME280;37382;45.192;9.790;2023-05-12T05:55:46;100838.41;;;15.46;100.00
51299;BME280;37382;45.192;9.790;2023-05-12T05:58:15;100849.06;;;15.54;100.00
51299;BME280;37382;45.192;9.790;2023-05-12T06:00:44;100848.00;;;15.37;100.00
51299;BME280;37382;45.192;9.790;2023-05-12T06:03:12;100845.41;;;15.60;100.00
51299;BME280;37382;45.192;9.790;2023-05-12T06:05:39;100846.94;;;15.56;100.00
51299;BME280;37382;45.192;9.790;2023-05-12T06:08:10;100850.91;;;15.79;100.00
51299;BME280;37382;45.192;9.790;2023-05-12T06:10:40;100850.44;;;15.63;100.00
51299;BME280;37382;45.192;9.790;2023-05-12T06:13:08;100849.28;;;15.71;100.00
51299;BME280;37382;45.192;9.790;2023-05-12T06:15:36;100853.88;;;15.77;100.00
51299;BME280;37382;45.192;9.790;2023-05-12T06:18:29;100857.81;;;16.00;100.00
51299;BME280;37382;45.192;9.790;2023-05-12T06:20:56;100859.81;;;16.11;100.00
51299;BME280;37382;45.192;9.790;2023-05-12T06:23:25;100859.81;;;16.11;100.00
51299;BME280;37382;45.192;9.790;2023-05-12T06:25:52;100867.81;;;16.13;100.00
51299;BME280;37382;45.192;9.790;2023-05-12T06:28:20;100874.34;;;16.12;100.00
51299;BME280;37382;45.192;9.790;2023-05-12T06:30:47;100874.84;;;15.90;100.00
51299;BME280;37382;45.192;9.790;2023-05-12T06:33:16;100875.75;;;16.03;100.00
51299;BME280;37382;45.192;9.790;2023-05-12T06:35:44;100876.34;;;16.05;100.00
51299;BME280;37382;45.192;9.790;2023-05-12T06:38:12;100874.16;;;15.95;100.00
51299;BME280;37382;45.192;9.790;2023-05-12T06:40:39;100884.56;;;16.23;100.00
51299;BME280;37382;45.192;9.790;2023-05-12T06:43:07;100875.41;;;16.11;100.00
51299;BME280;37382;45.192;9.790;2023-05-12T06:45:35;100871.44;;;16.25;100.00
51299;BME280;37382;45.192;9.790;2023-05-12T06:48:03;100882.00;;;16.10;100.00
51299;BME280;37382;45.192;9.790;2023-05-12T06:50:32;100881.19;;;16.51;100.00
51299;BME280;37382;45.192;9.790;2023-05-12T06:52:59;100879.44;;;16.57;100.00
51299;BME280;37382;45.192;9.790;2023-05-12T06:55:27;100874.94;;;16.32;100.00
51299;BME280;37382;45.192;9.790;2023-05-12T06:57:54;100872.16;;;16.75;100.00
51299;BME280;37382;45.192;9.790;2023-05-12T07:00:24;100878.53;;;16.75;100.00
51299;BME280;37382;45.192;9.790;2023-05-12T07:02:52;100875.81;;;16.99;100.00
51299;BME280;37382;45.192;9.790;2023-05-12T07:05:19;100874.16;;;16.56;100.00
51299;BME280;37382;45.192;9.790;2023-05-12T07:07:48;100871.22;;;16.81;100.00
51299;BME280;37382;45.192;9.790;2023-05-12T07:10:16;100872.63;;;16.71;100.00
51299;BME280;37382;45.192;9.790;2023-05-12T07:12:44;100871.53;;;16.91;100.00
51299;BME280;37382;45.192;9.790;2023-05-12T07:15:12;100880.03;;;17.01;100.00
51299;BME280;37382;45.192;9.790;2023-05-12T07:17:39;100876.91;;;17.10;100.00
51299;BME280;37382;45.192;9.790;2023-05-12T07:20:07;100868.84;;;16.84;100.00
51299;BME280;37382;45.192;9.790;2023-05-12T07:22:35;100873.69;;;17.13;100.00
51299;BME280;37382;45.192;9.790;2023-05-12T07:25:05;100879.66;;;17.10;100.00
51299;BME280;37382;45.192;9.790;2023-05-12T07:27:34;100871.28;;;17.40;100.00
51299;BME280;37382;45.192;9.790;2023-05-12T07:30:02;100865.78;;;17.40;100.00
51299;BME280;37382;45.192;9.790;2023-05-12T07:32:29;100883.25;;;17.10;100.00
51299;BME280;37382;45.192;9.790;2023-05-12T07:34:57;100883.38;;;17.27;100.00
51299;BME280;37382;45.192;9.790;2023-05-12T07:37:25;100868.56;;;18.04;100.00
51299;BME280;37382;45.192;9.790;2023-05-12T07:39:52;100872.22;;;18.51;100.00
51299;BME280;37382;45.192;9.790;2023-05-12T07:42:20;100874.75;;;18.69;100.00
51299;BME280;37382;45.192;9.790;2023-05-12T07:44:48;100880.47;;;18.96;100.00
51299;BME280;37382;45.192;9.790;2023-05-12T07:47:16;100872.28;;;19.58;100.00
51299;BME280;37382;45.192;9.790;2023-05-12T07:49:44;100875.66;;;19.60;100.00
51299;BME280;37382;45.192;9.790;2023-05-12T07:52:12;100871.38;;;19.91;100.00
51299;BME280;37382;45.192;9.790;2023-05-12T07:54:39;100875.38;;;19.78;100.00
51299;BME280;37382;45.192;9.790;2023-05-12T07:57:07;100881.03;;;19.15;100.00
51299;BME280;37382;45.192;9.790;2023-05-12T07:59:34;100875.56;;;19.54;100.00
51299;BME280;37382;45.192;9.790;2023-05-12T08:02:02;100869.38;;;19.64;100.00
51299;BME280;37382;45.192;9.790;2023-05-12T08:04:29;100865.69;;;19.02;100.00
51299;BME280;37382;45.192;9.790;2023-05-12T08:06:57;100869.69;;;18.95;100.00
51299;BME280;37382;45.192;9.790;2023-05-12T08:09:24;100874.31;;;18.77;100.00
51299;BME280;37382;45.192;9.790;2023-05-12T08:11:52;100878.56;;;18.68;100.00
51299;BME280;37382;45.192;9.790;2023-05-12T08:14:19;100879.25;;;18.75;100.00
51299;BME280;37382;45.192;9.790;2023-05-12T08:16:48;100874.28;;;19.23;100.00
51299;BME280;37382;45.192;9.790;2023-05-12T08:19:16;100885.06;;;19.25;100.00
51299;BME280;37382;45.192;9.790;2023-05-12T08:21:43;100881.50;;;18.78;100.00
51299;BME280;37382;45.192;9.790;2023-05-12T08:24:10;100882.78;;;18.13;100.00
51299;BME280;37382;45.192;9.790;2023-05-12T08:26:38;100884.19;;;18.73;100.00
51299;BME280;37382;45.192;9.790;2023-05-12T08:29:05;100892.72;;;18.72;100.00
51299;BME280;37382;45.192;9.790;2023-05-12T08:31:37;100891.19;;;18.64;100.00
51299;BME280;37382;45.192;9.790;2023-05-12T08:34:04;100888.56;;;18.86;100.00
51299;BME280;37382;45.192;9.790;2023-05-12T08:36:39;100882.56;;;19.06;100.00
51299;BME280;37382;45.192;9.790;2023-05-12T08:39:07;100879.00;;;18.77;100.00
51299;BME280;37382;45.192;9.790;2023-05-12T08:41:44;100884.47;;;19.23;100.00
51299;BME280;37382;45.192;9.790;2023-05-12T08:44:14;100885.69;;;19.49;100.00
51299;BME280;37382;45.192;9.790;2023-05-12T08:46:42;100892.72;;;19.40;100.00
51299;BME280;37382;45.192;9.790;2023-05-12T08:49:13;100885.06;;;18.91;100.00
51299;BME280;37382;45.192;9.790;2023-05-12T08:51:43;100882.81;;;19.22;100.00
51299;BME280;37382;45.192;9.790;2023-05-12T08:54:26;100886.72;;;19.26;100.00
51299;BME280;37382;45.192;9.790;2023-05-12T08:56:55;100881.72;;;19.23;100.00
51299;BME280;37382;45.192;9.790;2023-05-12T08:59:25;100880.91;;;19.44;100.00
51299;BME280;37382;45.192;9.790;2023-05-12T09:01:54;100884.63;;;18.82;100.00
51299;BME280;37382;45.192;9.790;2023-05-12T09:04:23;100875.03;;;19.35;100.00
51299;BME280;37382;45.192;9.790;2023-05-12T09:06:50;100881.31;;;19.31;100.00
51299;BME280;37382;45.192;9.790;2023-05-12T09:09:22;100880.88;;;19.39;100.00
51299;BME280;37382;45.192;9.790;2023-05-12T09:11:55;100872.16;;;19.86;100.00
51299;BME280;37382;45.192;9.790;2023-05-12T09:14:24;100878.38;;;19.99;100.00
51299;BME280;37382;45.192;9.790;2023-05-12T09:16:59;100877.91;;;20.29;100.00
51299;BME280;37382;45.192;9.790;2023-05-12T09:19:28;100883.28;;;20.41;100.00
51299;BME280;37382;45.192;9.790;2023-05-12T09:21:57;100879.59;;;20.57;100.00
51299;BME280;37382;45.192;9.790;2023-05-12T09:24:38;100881.63;;;20.67;100.00
51299;BME280;37382;45.192;9.790;2023-05-12T09:27:06;100882.50;;;20.46;100.00
51299;BME280;37382;45.192;9.790;2023-05-12T09:29:34;100888.13;;;20.56;100.00
51299;BME280;37382;45.192;9.790;2023-05-12T09:32:14;100880.63;;;19.80;100.00
51299;BME280;37382;45.192;9.790;2023-05-12T09:34:42;100880.00;;;19.95;100.00
51299;BME280;37382;45.192;9.790;2023-05-12T09:37:10;100885.56;;;19.78;100.00
51299;BME280;37382;45.192;9.790;2023-05-12T09:39:42;100883.25;;;19.91;100.00
51299;BME280;37382;45.192;9.790;2023-05-12T09:42:11;100883.00;;;20.15;100.00
51299;BME280;37382;45.192;9.790;2023-05-12T09:44:39;100893.00;;;19.77;100.00
51299;BME280;37382;45.192;9.790;2023-05-12T09:47:08;100886.28;;;19.73;100.00
51299;BME280;37382;45.192;9.790;2023-05-12T09:49:37;100875.97;;;19.63;100.00
51299;BME280;37382;45.192;9.790;2023-05-12T09:52:04;100875.44;;;19.83;100.00
51299;BME280;37382;45.192;9.790;2023-05-12T09:54:32;100881.13;;;19.77;100.00
51299;BME280;37382;45.192;9.790;2023-05-12T09:57:02;100877.50;;;19.76;100.00
51299;BME280;37382;45.192;9.790;2023-05-12T09:59:33;100893.56;;;20.23;100.00
51299;BME280;37382;45.192;9.790;2023-05-12T10:02:04;100882.63;;;20.34;100.00
51299;BME280;37382;45.192;9.790;2023-05-12T10:04:40;100888.53;;;20.97;100.00
51299;BME280;37382;45.192;9.790;2023-05-12T10:07:11;100878.38;;;21.08;100.00
51299;BME280;37382;45.192;9.790;2023-05-12T10:12:09;100881.56;;;20.89;100.00
51299;BME280;37382;45.192;9.790;2023-05-12T10:14:37;100873.25;;;21.27;100.00
51299;BME280;37382;45.192;9.790;2023-05-12T10:17:05;100867.25;;;21.35;100.00
51299;BME280;37382;45.192;9.790;2023-05-12T10:19:34;100874.41;;;21.36;100.00
51299;BME280;37382;45.192;9.790;2023-05-12T10:22:01;100865.81;;;21.27;100.00
51299;BME280;37382;45.192;9.790;2023-05-12T10:24:30;100872.09;;;21.55;100.00
51299;BME280;37382;45.192;9.790;2023-05-12T10:26:58;100867.59;;;21.49;100.00
51299;BME280;37382;45.192;9.790;2023-05-12T10:29:28;100865.72;;;21.17;100.00
51299;BME280;37382;45.192;9.790;2023-05-12T10:31:57;100861.88;;;21.18;100.00
51299;BME280;37382;45.192;9.790;2023-05-12T10:34:29;100856.56;;;21.11;100.00
51299;BME280;37382;45.192;9.790;2023-05-12T10:36:59;100862.44;;;21.25;100.00
51299;BME280;37382;45.192;9.790;2023-05-12T10:39:28;100860.00;;;21.72;100.00
51299;BME280;37382;45.192;9.790;2023-05-12T10:42:16;100862.88;;;21.97;100.00
51299;BME280;37382;45.192;9.790;2023-05-12T10:44:53;100865.44;;;22.19;100.00
51299;BME280;37382;45.192;9.790;2023-05-12T10:47:34;100867.81;;;21.85;100.00
51299;BME280;37382;45.192;9.790;2023-05-12T10:50:02;100875.28;;;21.37;100.00
51299;BME280;37382;45.192;9.790;2023-05-12T10:52:30;100872.16;;;20.90;100.00
51299;BME280;37382;45.192;9.790;2023-05-12T10:55:02;100872.41;;;20.61;100.00
51299;BME280;37382;45.192;9.790;2023-05-12T10:57:31;100873.38;;;20.18;100.00
51299;BME280;37382;45.192;9.790;2023-05-12T11:00:00;100879.13;;;19.72;100.00
51299;BME280;37382;45.192;9.790;2023-05-12T11:02:31;100874.44;;;19.16;100.00
51299;BME280;37382;45.192;9.790;2023-05-12T11:05:09;100887.84;;;18.79;100.00
51299;BME280;37382;45.192;9.790;2023-05-12T11:07:46;100892.84;;;18.65;100.00
51299;BME280;37382;45.192;9.790;2023-05-12T11:10:14;100906.75;;;18.12;100.00
51299;BME280;37382;45.192;9.790;2023-05-12T11:12:42;100916.38;;;17.74;100.00
51299;BME280;37382;45.192;9.790;2023-05-12T11:15:11;100931.53;;;17.06;100.00
51299;BME280;37382;45.192;9.790;2023-05-12T11:17:39;100936.75;;;16.65;100.00
51299;BME280;37382;45.192;9.790;2023-05-12T11:20:08;100935.66;;;16.54;100.00
51299;BME280;37382;45.192;9.790;2023-05-12T11:22:36;100932.94;;;16.36;100.00
51299;BME280;37382;45.192;9.790;2023-05-12T11:25:10;100936.13;;;16.51;100.00
51299;BME280;37382;45.192;9.790;2023-05-12T11:27:45;100930.91;;;16.62;100.00
51299;BME280;37382;45.192;9.790;2023-05-12T11:30:17;100928.75;;;16.64;100.00
51299;BME280;37382;45.192;9.790;2023-05-12T11:32:46;100926.59;;;16.54;100.00
51299;BME280;37382;45.192;9.790;2023-05-12T11:35:16;100920.22;;;16.42;100.00
51299;BME280;37382;45.192;9.790;2023-05-12T11:37:45;100916.03;;;16.21;100.00
51299;BME280;37382;45.192;9.790;2023-05-12T11:40:19;100912.47;;;16.20;100.00
51299;BME280;37382;45.192;9.790;2023-05-12T11:42:49;100906.75;;;16.03;100.00
51299;BME280;37382;45.192;9.790;2023-05-12T11:45:24;100904.84;;;16.22;100.00
51299;BME280;37382;45.192;9.790;2023-05-12T11:48:04;100911.31;;;16.09;100.00
51299;BME280;37382;45.192;9.790;2023-05-12T11:50:36;100924.50;;;16.19;100.00
51299;BME280;37382;45.192;9.790;2023-05-12T11:53:04;100946.41;;;16.07;100.00
51299;BME280;37382;45.192;9.790;2023-05-12T11:55:32;100951.91;;;15.63;100.00
51299;BME280;37382;45.192;9.790;2023-05-12T11:58:01;100949.13;;;14.94;100.00
51299;BME280;37382;45.192;9.790;2023-05-12T12:00:34;100929.69;;;14.71;100.00
51299;BME280;37382;45.192;9.790;2023-05-12T12:03:12;100936.34;;;14.43;100.00
51299;BME280;37382;45.192;9.790;2023-05-12T12:05:43;100940.09;;;14.49;100.00
51299;BME280;37382;45.192;9.790;2023-05-12T12:08:13;100942.97;;;14.67;100.00
51299;BME280;37382;45.192;9.790;2023-05-12T12:10:45;100942.13;;;14.60;100.00
51299;BME280;37382;45.192;9.790;2023-05-12T12:13:20;100932.88;;;14.68;100.00
51299;BME280;37382;45.192;9.790;2023-05-12T12:15:49;100939.41;;;14.60;100.00
51299;BME280;37382;45.192;9.790;2023-05-12T12:18:17;100943.19;;;14.66;100.00
51299;BME280;37382;45.192;9.790;2023-05-12T12:20:45;100936.63;;;14.73;100.00
51299;BME280;37382;45.192;9.790;2023-05-12T12:23:13;100933.03;;;14.34;100.00
51299;BME280;37382;45.192;9.790;2023-05-12T12:25:40;100923.72;;;14.42;100.00
51299;BME280;37382;45.192;9.790;2023-05-12T12:28:09;100912.72;;;14.49;100.00
51299;BME280;37382;45.192;9.790;2023-05-12T12:30:37;100916.34;;;14.43;100.00
51299;BME280;37382;45.192;9.790;2023-05-12T12:33:05;100897.00;;;15.01;100.00
51299;BME280;37382;45.192;9.790;2023-05-12T12:35:32;100891.53;;;14.76;100.00
51299;BME280;37382;45.192;9.790;2023-05-12T12:37:59;100890.34;;;15.16;100.00
51299;BME280;37382;45.192;9.790;2023-05-12T12:40:27;100883.84;;;15.35;100.00
51299;BME280;37382;45.192;9.790;2023-05-12T12:42:55;100883.06;;;15.90;100.00
51299;BME280;37382;45.192;9.790;2023-05-12T12:45:22;100884.59;;;16.35;100.00
51299;BME280;37382;45.192;9.790;2023-05-12T12:47:53;100881.72;;;15.74;100.00
51299;BME280;37382;45.192;9.790;2023-05-12T12:50:21;100872.63;;;15.99;100.00
51299;BME280;37382;45.192;9.790;2023-05-12T12:52:52;100872.91;;;16.40;100.00
51299;BME280;37382;45.192;9.790;2023-05-12T12:55:19;100876.72;;;16.08;100.00
51299;BME280;37382;45.192;9.790;2023-05-12T12:57:48;100875.88;;;16.80;100.00
51299;BME280;37382;45.192;9.790;2023-05-12T13:00:16;100881.28;;;16.75;100.00
51299;BME280;37382;45.192;9.790;2023-05-12T13:02:43;100878.25;;;17.07;100.00
51299;BME280;37382;45.192;9.790;2023-05-12T13:05:11;100877.16;;;17.20;100.00
51299;BME280;37382;45.192;9.790;2023-05-12T13:07:39;100879.19;;;17.13;100.00
51299;BME280;37382;45.192;9.790;2023-05-12T13:10:07;100868.78;;;17.50;100.00
51299;BME280;37382;45.192;9.790;2023-05-12T13:12:36;100867.19;;;17.78;100.00
51299;BME280;37382;45.192;9.790;2023-05-12T13:15:03;100867.31;;;17.83;100.00
51299;BME280;37382;45.192;9.790;2023-05-12T13:17:32;100866.50;;;17.71;100.00
51299;BME280;37382;45.192;9.790;2023-05-12T13:20:00;100858.44;;;17.93;100.00
51299;BME280;37382;45.192;9.790;2023-05-12T13:22:28;100853.28;;;17.96;100.00
51299;BME280;37382;45.192;9.790;2023-05-12T13:24:56;100848.47;;;18.04;100.00
51299;BME280;37382;45.192;9.790;2023-05-12T13:27:24;100843.66;;;18.11;100.00
51299;BME280;37382;45.192;9.790;2023-05-12T13:29:52;100848.13;;;18.00;100.00
51299;BME280;37382;45.192;9.790;2023-05-12T13:32:20;100850.44;;;18.20;100.00
51299;BME280;37382;45.192;9.790;2023-05-12T13:34:48;100848.19;;;18.17;100.00
51299;BME280;37382;45.192;9.790;2023-05-12T13:37:16;100845.75;;;17.92;100.00
51299;BME280;37382;45.192;9.790;2023-05-12T13:39:43;100836.63;;;18.03;100.00
51299;BME280;37382;45.192;9.790;2023-05-12T13:42:10;100837.94;;;18.01;100.00
51299;BME280;37382;45.192;9.790;2023-05-12T13:44:38;100829.72;;;17.89;100.00
51299;BME280;37382;45.192;9.790;2023-05-12T13:47:05;100848.41;;;17.75;100.00
51299;BME280;37382;45.192;9.790;2023-05-12T13:49:37;100842.91;;;17.63;100.00
51299;BME280;37382;45.192;9.790;2023-05-12T13:52:06;100842.91;;;17.75;100.00
51299;BME280;37382;45.192;9.790;2023-05-12T13:54:34;100854.34;;;18.07;100.00
51299;BME280;37382;45.192;9.790;2023-05-12T13:57:01;100853.81;;;18.39;100.00
51299;BME280;37382;45.192;9.790;2023-05-12T13:59:30;100848.13;;;18.29;100.00
51299;BME280;37382;45.192;9.790;2023-05-12T14:01:57;100853.81;;;18.39;100.00
51299;BME280;37382;45.192;9.790;2023-05-12T14:04:26;100848.47;;;18.33;100.00
51299;BME280;37382;45.192;9.790;2023-05-12T14:06:53;100858.53;;;18.56;100.00
51299;BME280;37382;45.192;9.790;2023-05-12T14:09:21;100845.59;;;18.56;100.00
51299;BME280;37382;45.192;9.790;2023-05-12T14:11:49;100844.91;;;19.51;100.00
51299;BME280;37382;45.192;9.790;2023-05-12T14:14:17;100850.41;;;20.17;100.00
51299;BME280;37382;45.192;9.790;2023-05-12T14:16:45;100846.09;;;20.81;100.00
51299;BME280;37382;45.192;9.790;2023-05-12T14:19:13;100854.38;;;20.81;100.00
51299;BME280;37382;45.192;9.790;2023-05-12T14:21:41;100855.56;;;20.90;100.00
51299;BME280;37382;45.192;9.790;2023-05-12T14:24:09;100856.56;;;21.11;100.00
51299;BME280;37382;45.192;9.790;2023-05-12T14:26:36;100849.84;;;21.93;100.00
51299;BME280;37382;45.192;9.790;2023-05-12T14:29:04;100851.41;;;22.88;100.00
51299;BME280;37382;45.192;9.790;2023-05-12T14:31:35;100847.81;;;23.18;100.00
51299;BME280;37382;45.192;9.790;2023-05-12T14:34:03;100848.09;;;24.08;100.00
51299;BME280;37382;45.192;9.790;2023-05-12T14:36:31;100840.94;;;23.91;100.00
51299;BME280;37382;45.192;9.790;2023-05-12T14:38:59;100850.31;;;23.09;100.00
51299;BME280;37382;45.192;9.790;2023-05-12T14:41:27;100848.34;;;23.36;100.00
51299;BME280;37382;45.192;9.790;2023-05-12T14:43:54;100845.25;;;24.63;100.00
51299;BME280;37382;45.192;9.790;2023-05-12T14:46:22;100846.56;;;24.31;100.00
51299;BME280;37382;45.192;9.790;2023-05-12T14:48:51;100850.69;;;28.30;100.00
51299;BME280;37382;45.192;9.790;2023-05-12T14:51:19;100848.06;;;27.55;96.64
51299;BME280;37382;45.192;9.790;2023-05-12T14:53:46;100841.22;;;26.30;96.40
51299;BME280;37382;45.192;9.790;2023-05-12T14:56:14;100857.50;;;23.31;100.00
51299;BME280;37382;45.192;9.790;2023-05-12T14:58:42;100858.16;;;22.03;100.00
51299;BME280;37382;45.192;9.790;2023-05-12T15:01:10;100872.50;;;20.67;100.00
51299;BME280;37382;45.192;9.790;2023-05-12T15:03:38;100861.44;;;20.39;100.00
51299;BME280;37382;45.192;9.790;2023-05-12T15:06:06;100865.59;;;20.15;100.00
51299;BME280;37382;45.192;9.790;2023-05-12T15:08:34;100861.13;;;20.36;100.00
51299;BME280;37382;45.192;9.790;2023-05-12T15:11:03;100859.03;;;22.03;100.00
51299;BME280;37382;45.192;9.790;2023-05-12T15:13:30;100846.41;;;27.54;100.00
51299;BME280;37382;45.192;9.790;2023-05-12T15:15:58;100838.22;;;30.68;79.66
51299;BME280;37382;45.192;9.790;2023-05-12T15:18:25;100839.22;;;30.63;63.27
51299;BME280;37382;45.192;9.790;2023-05-12T15:20:53;100843.00;;;27.99;76.91
51299;BME280;37382;45.192;9.790;2023-05-12T15:23:21;100834.25;;;28.96;72.75
51299;BME280;37382;45.192;9.790;2023-05-12T15:25:49;100827.13;;;30.89;69.65
51299;BME280;37382;45.192;9.790;2023-05-12T15:28:17;100830.06;;;27.33;85.46
51299;BME280;37382;45.192;9.790;2023-05-12T15:30:53;100812.06;;;35.34;52.98
51299;BME280;37382;45.192;9.790;2023-05-12T15:33:22;100806.31;;;38.22;43.53
51299;BME280;37382;45.192;9.790;2023-05-12T15:35:51;100805.63;;;40.12;38.80
51299;BME280;37382;45.192;9.790;2023-05-12T15:38:19;100808.03;;;32.74;50.22
51299;BME280;37382;45.192;9.790;2023-05-12T15:40:46;100814.03;;;27.67;66.64
51299;BME280;37382;45.192;9.790;2023-05-12T15:43:13;100811.84;;;25.75;78.22
51299;BME280;37382;45.192;9.790;2023-05-12T15:45:41;100808.44;;;23.92;100.00
51299;BME280;37382;45.192;9.790;2023-05-12T15:48:09;100815.63;;;22.76;100.00
51299;BME280;37382;45.192;9.790;2023-05-12T15:50:37;100808.84;;;21.37;100.00
51299;BME280;37382;45.192;9.790;2023-05-12T15:53:04;100815.66;;;20.76;100.00
51299;BME280;37382;45.192;9.790;2023-05-12T15:55:33;100829.09;;;20.40;100.00
51299;BME280;37382;45.192;9.790;2023-05-12T15:58:00;100825.59;;;19.95;100.00
51299;BME280;37382;45.192;9.790;2023-05-12T16:00:29;100830.34;;;19.55;100.00
51299;BME280;37382;45.192;9.790;2023-05-12T16:02:58;100831.91;;;19.29;100.00
51299;BME280;37382;45.192;9.790;2023-05-12T16:05:28;100840.19;;;19.29;100.00
51299;BME280;37382;45.192;9.790;2023-05-12T16:07:55;100851.47;;;19.28;100.00
51299;BME280;37382;45.192;9.790;2023-05-12T16:10:23;100850.06;;;19.08;100.00
51299;BME280;37382;45.192;9.790;2023-05-12T16:12:50;100859.97;;;18.29;100.00
51299;BME280;37382;45.192;9.790;2023-05-12T16:15:18;100855.88;;;17.15;100.00
51299;BME280;37382;45.192;9.790;2023-05-12T16:17:46;100855.91;;;16.73;100.00
51299;BME280;37382;45.192;9.790;2023-05-12T16:20:14;100871.19;;;16.57;100.00
51299;BME280;37382;45.192;9.790;2023-05-12T16:22:41;100887.97;;;16.37;100.00
51299;BME280;37382;45.192;9.790;2023-05-12T16:25:09;100897.94;;;16.31;100.00
51299;BME280;37382;45.192;9.790;2023-05-12T16:27:37;100912.88;;;15.87;100.00
51299;BME280;37382;45.192;9.790;2023-05-12T16:30:05;100915.44;;;15.81;100.00
51299;BME280;37382;45.192;9.790;2023-05-12T16:32:33;100919.63;;;15.65;100.00
51299;BME280;37382;45.192;9.790;2023-05-12T16:35:01;100909.56;;;15.59;100.00
51299;BME280;37382;45.192;9.790;2023-05-12T16:37:29;100928.50;;;15.17;100.00
51299;BME280;37382;45.192;9.790;2023-05-12T16:39:57;100918.69;;;15.03;100.00
51299;BME280;37382;45.192;9.790;2023-05-12T16:42:25;100931.75;;;15.07;100.00
51299;BME280;37382;45.192;9.790;2023-05-12T16:44:53;100930.78;;;14.95;100.00
51299;BME280;37382;45.192;9.790;2023-05-12T16:47:23;100943.66;;;15.20;100.00
51299;BME280;37382;45.192;9.790;2023-05-12T16:49:51;100961.84;;;15.14;100.00
51299;BME280;37382;45.192;9.790;2023-05-12T16:52:20;100967.25;;;14.89;100.00
51299;BME280;37382;45.192;9.790;2023-05-12T16:54:48;100968.47;;;14.68;100.00
51299;BME280;37382;45.192;9.790;2023-05-12T16:57:16;100966.50;;;14.30;100.00
51299;BME280;37382;45.192;9.790;2023-05-12T16:59:45;100966.44;;;14.50;100.00
51299;BME280;37382;45.192;9.790;2023-05-12T17:02:15;100976.41;;;14.76;100.00
51299;BME280;37382;45.192;9.790;2023-05-12T17:04:43;100976.66;;;15.00;100.00
51299;BME280;37382;45.192;9.790;2023-05-12T17:07:10;100987.97;;;14.85;100.00